sensor_id;sensor_type;location;lat;lon;timestamp;temperature;humidity
7016;DHT22;3548;48.402;9.990;2022-12-16T00:03:39;0.70;99.90
7016;DHT22;3548;48.402;9.990;2022-12-16T00:06:07;0.70;99.90
7016;DHT22;3548;48.402;9.990;2022-12-16T00:08:35;0.60;99.90
7016;DHT22;3548;48.402;9.990;2022-12-16T00:11:02;0.70;99.90
7016;DHT22;3548;48.402;9.990;2022-12-16T00:13:32;0.60;99.90
7016;DHT22;3548;48.402;9.990;2022-12-16T00:15:59;0.50;99.90
7016;DHT22;3548;48.402;9.990;2022-12-16T00:18:25;0.50;99.90
7016;DHT22;3548;48.402;9.990;2022-12-16T00:20:52;0.50;99.90
7016;DHT22;3548;48.402;9.990;2022-12-16T00:23:18;0.50;99.90
7016;DHT22;3548;48.402;9.990;2022-12-16T00:25:45;0.40;99.90
7016;DHT22;3548;48.402;9.990;2022-12-16T00:28:12;0.40;99.90
7016;DHT22;3548;48.402;9.990;2022-12-16T00:30:38;0.40;99.90
7016;DHT22;3548;48.402;9.990;2022-12-16T00:33:05;0.40;99.90
7016;DHT22;3548;48.402;9.990;2022-12-16T00:35:30;0.50;99.90
7016;DHT22;3548;48.402;9.990;2022-12-16T00:37:58;0.60;99.90
7016;DHT22;3548;48.402;9.990;2022-12-16T00:40:24;0.60;99.90
7016;DHT22;3548;48.402;9.990;2022-12-16T00:42:50;0.70;99.90
7016;DHT22;3548;48.402;9.990;2022-12-16T00:45:16;0.70;99.90
7016;DHT22;3548;48.402;9.990;2022-12-16T00:47:41;0.60;99.90
7016;DHT22;3548;48.402;9.990;2022-12-16T00:50:08;0.60;99.90
7016;DHT22;3548;48.402;9.990;2022-12-16T00:52:34;0.50;99.90
7016;DHT22;3548;48.402;9.990;2022-12-16T00:55:00;0.60;99.90
7016;DHT22;3548;48.402;9.990;2022-12-16T00:57:25;0.60;99.90
7016;DHT22;3548;48.402;9.990;2022-12-16T00:59:51;0.50;99.90
7016;DHT22;3548;48.402;9.990;2022-12-16T01:02:16;0.50;99.90
7016;DHT22;3548;48.402;9.990;2022-12-16T01:04:42;0.50;99.90
7016;DHT22;3548;48.402;9.990;2022-12-16T01:07:08;0.50;99.90
7016;DHT22;3548;48.402;9.990;2022-12-16T01:09:34;0.50;99.90
7016;DHT22;3548;48.402;9.990;2022-12-16T01:12:00;0.60;99.90
7016;DHT22;3548;48.402;9.990;2022-12-16T01:14:25;0.60;99.90
7016;DHT22;3548;48.402;9.990;2022-12-16T01:16:51;0.60;99.90
7016;DHT22;3548;48.402;9.990;2022-12-16T01:19:16;0.60;99.90
7016;DHT22;3548;48.402;9.990;2022-12-16T01:21:42;0.60;99.90
7016;DHT22;3548;48.402;9.990;2022-12-16T01:24:09;0.70;99.90
7016;DHT22;3548;48.402;9.990;2022-12-16T01:26:36;0.80;99.90
7016;DHT22;3548;48.402;9.990;2022-12-16T01:29:02;0.80;99.90
7016;DHT22;3548;48.402;9.990;2022-12-16T01:31:27;0.70;99.90
7016;DHT22;3548;48.402;9.990;2022-12-16T01:33:53;0.80;99.90
7016;DHT22;3548;48.402;9.990;2022-12-16T01:36:19;0.70;99.90
7016;DHT22;3548;48.402;9.990;2022-12-16T01:38:44;0.70;99.90
7016;DHT22;3548;48.402;9.990;2022-12-16T01:41:14;0.70;99.90
7016;DHT22;3548;48.402;9.990;2022-12-16T01:43:41;0.60;99.90
7016;DHT22;3548;48.402;9.990;2022-12-16T01:49:01;0.60;99.90
7016;DHT22;3548;48.402;9.990;2022-12-16T01:51:41;0.60;99.90
7016;DHT22;3548;48.402;9.990;2022-12-16T01:54:14;0.60;99.90
7016;DHT22;3548;48.402;9.990;2022-12-16T01:56:52;0.60;99.90
7016;DHT22;3548;48.402;9.990;2022-12-16T01:59:19;0.50;99.90
7016;DHT22;3548;48.402;9.990;2022-12-16T02:01:46;0.50;99.90
7016;DHT22;3548;48.402;9.990;2022-12-16T02:04:12;0.50;99.90
7016;DHT22;3548;48.402;9.990;2022-12-16T02:06:38;0.50;99.90
7016;DHT22;3548;48.402;9.990;2022-12-16T02:09:08;0.50;99.90
7016;DHT22;3548;48.402;9.990;2022-12-16T02:14:15;0.50;99.90
7016;DHT22;3548;48.402;9.990;2022-12-16T02:17:37;0.50;99.90
7016;DHT22;3548;48.402;9.990;2022-12-16T02:25:46;0.40;99.90
7016;DHT22;3548;48.402;9.990;2022-12-16T02:34:07;0.30;99.90
7016;DHT22;3548;48.402;9.990;2022-12-16T02:39:41;0.20;99.90
7016;DHT22;3548;48.402;9.990;2022-12-16T02:42:14;0.20;99.90
7016;DHT22;3548;48.402;9.990;2022-12-16T02:47:28;0.20;99.90
7016;DHT22;3548;48.402;9.990;2022-12-16T02:49:54;0.10;99.90
7016;DHT22;3548;48.402;9.990;2022-12-16T02:52:29;0.20;99.90
7016;DHT22;3548;48.402;9.990;2022-12-16T02:55:02;0.20;99.90
7016;DHT22;3548;48.402;9.990;2022-12-16T02:57:56;0.10;99.90
7016;DHT22;3548;48.402;9.990;2022-12-16T03:00:20;0.10;99.90
7016;DHT22;3548;48.402;9.990;2022-12-16T03:03:06;0.10;99.90
7016;DHT22;3548;48.402;9.990;2022-12-16T03:05:33;0.00;99.90
7016;DHT22;3548;48.402;9.990;2022-12-16T03:08:03;0.00;99.90
7016;DHT22;3548;48.402;9.990;2022-12-16T03:10:34;0.00;99.90
7016;DHT22;3548;48.402;9.990;2022-12-16T03:13:02;0.00;99.90
7016;DHT22;3548;48.402;9.990;2022-12-16T03:15:29;0.00;99.90
7016;DHT22;3548;48.402;9.990;2022-12-16T03:17:58;0.00;99.90
7016;DHT22;3548;48.402;9.990;2022-12-16T03:21:07;0.00;99.90
7016;DHT22;3548;48.402;9.990;2022-12-16T03:23:47;0.00;99.90
7016;DHT22;3548;48.402;9.990;2022-12-16T03:26:31;0.00;99.90
7016;DHT22;3548;48.402;9.990;2022-12-16T03:29:07;0.10;99.90
7016;DHT22;3548;48.402;9.990;2022-12-16T03:31:59;0.20;99.90
7016;DHT22;3548;48.402;9.990;2022-12-16T03:34:31;0.20;99.90
7016;DHT22;3548;48.402;9.990;2022-12-16T03:37:04;0.20;99.90
7016;DHT22;3548;48.402;9.990;2022-12-16T03:39:33;0.20;99.90
7016;DHT22;3548;48.402;9.990;2022-12-16T03:42:00;0.20;99.90
7016;DHT22;3548;48.402;9.990;2022-12-16T03:44:26;0.10;99.90
7016;DHT22;3548;48.402;9.990;2022-12-16T03:46:52;0.10;99.90
7016;DHT22;3548;48.402;9.990;2022-12-16T03:49:18;0.10;99.90
7016;DHT22;3548;48.402;9.990;2022-12-16T03:51:43;0.00;99.90
7016;DHT22;3548;48.402;9.990;2022-12-16T03:54:09;0.00;99.90
7016;DHT22;3548;48.402;9.990;2022-12-16T03:56:34;0.00;99.90
7016;DHT22;3548;48.402;9.990;2022-12-16T03:59:00;0.00;99.90
7016;DHT22;3548;48.402;9.990;2022-12-16T04:01:25;0.00;99.90
7016;DHT22;3548;48.402;9.990;2022-12-16T04:03:51;0.00;99.90
7016;DHT22;3548;48.402;9.990;2022-12-16T04:06:17;0.00;99.90
7016;DHT22;3548;48.402;9.990;2022-12-16T04:08:46;0.10;99.90
7016;DHT22;3548;48.402;9.990;2022-12-16T04:11:15;0.10;99.90
7016;DHT22;3548;48.402;9.990;2022-12-16T04:13:59;0.20;99.90
7016;DHT22;3548;48.402;9.990;2022-12-16T04:16:44;0.20;99.90
7016;DHT22;3548;48.402;9.990;2022-12-16T04:19:32;0.20;99.90
7016;DHT22;3548;48.402;9.990;2022-12-16T04:22:26;0.20;99.90
7016;DHT22;3548;48.402;9.990;2022-12-16T04:25:16;0.20;99.90
7016;DHT22;3548;48.402;9.990;2022-12-16T04:27:42;0.20;99.90
7016;DHT22;3548;48.402;9.990;2022-12-16T04:30:18;0.30;99.90
7016;DHT22;3548;48.402;9.990;2022-12-16T04:32:50;0.30;99.90
7016;DHT22;3548;48.402;9.990;2022-12-16T04:35:36;0.40;99.90
7016;DHT22;3548;48.402;9.990;2022-12-16T04:38:20;0.40;99.90
7016;DHT22;3548;48.402;9.990;2022-12-16T04:41:04;0.40;99.90
7016;DHT22;3548;48.402;9.990;2022-12-16T04:43:48;0.40;99.90
7016;DHT22;3548;48.402;9.990;2022-12-16T04:46:32;0.40;99.90
7016;DHT22;3548;48.402;9.990;2022-12-16T04:49:16;0.40;99.90
7016;DHT22;3548;48.402;9.990;2022-12-16T04:52:00;0.40;99.90
7016;DHT22;3548;48.402;9.990;2022-12-16T04:54:44;0.30;99.90
7016;DHT22;3548;48.402;9.990;2022-12-16T04:57:28;0.30;99.90
7016;DHT22;3548;48.402;9.990;2022-12-16T05:00:12;0.30;99.90
7016;DHT22;3548;48.402;9.990;2022-12-16T05:02:57;0.30;99.90
7016;DHT22;3548;48.402;9.990;2022-12-16T05:05:41;0.30;99.90
7016;DHT22;3548;48.402;9.990;2022-12-16T05:08:26;0.30;99.90
7016;DHT22;3548;48.402;9.990;2022-12-16T05:11:10;0.30;99.90
7016;DHT22;3548;48.402;9.990;2022-12-16T05:13:55;0.30;99.90
7016;DHT22;3548;48.402;9.990;2022-12-16T05:16:40;0.30;99.90
7016;DHT22;3548;48.402;9.990;2022-12-16T05:19:24;0.40;99.90
7016;DHT22;3548;48.402;9.990;2022-12-16T05:22:09;0.40;99.90
7016;DHT22;3548;48.402;9.990;2022-12-16T05:24:53;0.40;99.90
7016;DHT22;3548;48.402;9.990;2022-12-16T05:27:37;0.50;99.90
7016;DHT22;3548;48.402;9.990;2022-12-16T05:30:22;0.50;99.90
7016;DHT22;3548;48.402;9.990;2022-12-16T05:33:06;0.50;99.90
7016;DHT22;3548;48.402;9.990;2022-12-16T05:35:50;0.50;99.90
7016;DHT22;3548;48.402;9.990;2022-12-16T05:38:34;0.50;99.90
7016;DHT22;3548;48.402;9.990;2022-12-16T05:41:18;0.50;99.90
7016;DHT22;3548;48.402;9.990;2022-12-16T05:44:02;0.40;99.90
7016;DHT22;3548;48.402;9.990;2022-12-16T05:46:46;0.30;99.90
7016;DHT22;3548;48.402;9.990;2022-12-16T05:49:30;0.30;99.90
7016;DHT22;3548;48.402;9.990;2022-12-16T05:52:14;0.20;99.90
7016;DHT22;3548;48.402;9.990;2022-12-16T05:54:59;0.10;99.90
7016;DHT22;3548;48.402;9.990;2022-12-16T05:57:43;0.20;99.90
7016;DHT22;3548;48.402;9.990;2022-12-16T06:00:27;0.20;99.90
7016;DHT22;3548;48.402;9.990;2022-12-16T06:03:11;0.20;99.90
7016;DHT22;3548;48.402;9.990;2022-12-16T06:05:55;0.20;99.90
7016;DHT22;3548;48.402;9.990;2022-12-16T06:08:39;0.20;99.90
7016;DHT22;3548;48.402;9.990;2022-12-16T06:11:23;0.20;99.90
7016;DHT22;3548;48.402;9.990;2022-12-16T06:14:07;0.20;99.90
7016;DHT22;3548;48.402;9.990;2022-12-16T06:16:51;0.20;99.90
7016;DHT22;3548;48.402;9.990;2022-12-16T06:19:35;0.20;99.90
7016;DHT22;3548;48.402;9.990;2022-12-16T06:22:19;0.30;99.90
7016;DHT22;3548;48.402;9.990;2022-12-16T06:25:04;0.30;99.90
7016;DHT22;3548;48.402;9.990;2022-12-16T06:27:50;0.40;99.90
7016;DHT22;3548;48.402;9.990;2022-12-16T06:30:34;0.40;99.90
7016;DHT22;3548;48.402;9.990;2022-12-16T06:33:18;0.50;99.90
7016;DHT22;3548;48.402;9.990;2022-12-16T06:36:03;0.50;99.90
7016;DHT22;3548;48.402;9.990;2022-12-16T06:38:47;0.50;99.90
7016;DHT22;3548;48.402;9.990;2022-12-16T06:41:31;0.40;99.90
7016;DHT22;3548;48.402;9.990;2022-12-16T06:44:15;0.40;99.90
7016;DHT22;3548;48.402;9.990;2022-12-16T06:46:59;0.40;99.90
7016;DHT22;3548;48.402;9.990;2022-12-16T06:49:44;0.40;99.90
7016;DHT22;3548;48.402;9.990;2022-12-16T06:52:29;0.50;99.90
7016;DHT22;3548;48.402;9.990;2022-12-16T06:55:13;0.50;99.90
7016;DHT22;3548;48.402;9.990;2022-12-16T06:57:57;0.50;99.90
7016;DHT22;3548;48.402;9.990;2022-12-16T07:00:42;0.60;99.90
7016;DHT22;3548;48.402;9.990;2022-12-16T07:03:27;0.50;99.90
7016;DHT22;3548;48.402;9.990;2022-12-16T07:06:11;0.50;99.90
7016;DHT22;3548;48.402;9.990;2022-12-16T07:08:55;0.40;99.90
7016;DHT22;3548;48.402;9.990;2022-12-16T07:11:40;0.40;99.90
7016;DHT22;3548;48.402;9.990;2022-12-16T07:14:24;0.40;99.90
7016;DHT22;3548;48.402;9.990;2022-12-16T07:17:08;0.30;99.90
7016;DHT22;3548;48.402;9.990;2022-12-16T07:19:53;0.30;99.90
7016;DHT22;3548;48.402;9.990;2022-12-16T07:22:42;0.20;99.90
7016;DHT22;3548;48.402;9.990;2022-12-16T07:25:26;0.30;99.90
7016;DHT22;3548;48.402;9.990;2022-12-16T07:28:10;0.20;99.90
7016;DHT22;3548;48.402;9.990;2022-12-16T07:30:54;0.20;99.90
7016;DHT22;3548;48.402;9.990;2022-12-16T07:33:38;0.20;99.90
7016;DHT22;3548;48.402;9.990;2022-12-16T07:36:22;0.10;99.90
7016;DHT22;3548;48.402;9.990;2022-12-16T07:39:07;0.00;99.90
7016;DHT22;3548;48.402;9.990;2022-12-16T07:41:51;-0.10;99.90
7016;DHT22;3548;48.402;9.990;2022-12-16T07:44:35;-0.20;99.90
7016;DHT22;3548;48.402;9.990;2022-12-16T07:47:19;-0.20;99.90
7016;DHT22;3548;48.402;9.990;2022-12-16T07:50:03;-0.20;99.90
7016;DHT22;3548;48.402;9.990;2022-12-16T07:52:54;-0.20;99.90
7016;DHT22;3548;48.402;9.990;2022-12-16T07:55:38;-0.10;99.90
7016;DHT22;3548;48.402;9.990;2022-12-16T07:58:22;-0.10;99.90
7016;DHT22;3548;48.402;9.990;2022-12-16T08:01:06;-0.10;99.90
7016;DHT22;3548;48.402;9.990;2022-12-16T08:03:50;-0.10;99.90
7016;DHT22;3548;48.402;9.990;2022-12-16T08:06:35;0.00;99.90
7016;DHT22;3548;48.402;9.990;2022-12-16T08:09:19;0.10;99.90
7016;DHT22;3548;48.402;9.990;2022-12-16T08:12:03;0.10;99.90
7016;DHT22;3548;48.402;9.990;2022-12-16T08:14:47;0.10;99.90
7016;DHT22;3548;48.402;9.990;2022-12-16T08:17:31;0.20;99.90
7016;DHT22;3548;48.402;9.990;2022-12-16T08:20:15;0.10;99.90
7016;DHT22;3548;48.402;9.990;2022-12-16T08:22:59;0.10;99.90
7016;DHT22;3548;48.402;9.990;2022-12-16T08:25:43;0.10;99.90
7016;DHT22;3548;48.402;9.990;2022-12-16T08:28:28;0.00;99.90
7016;DHT22;3548;48.402;9.990;2022-12-16T08:31:12;0.00;99.90
7016;DHT22;3548;48.402;9.990;2022-12-16T08:33:56;0.00;99.90
7016;DHT22;3548;48.402;9.990;2022-12-16T08:36:40;0.10;99.90
7016;DHT22;3548;48.402;9.990;2022-12-16T08:39:24;0.10;99.90
7016;DHT22;3548;48.402;9.990;2022-12-16T08:42:09;0.10;99.90
7016;DHT22;3548;48.402;9.990;2022-12-16T08:44:53;0.10;99.90
7016;DHT22;3548;48.402;9.990;2022-12-16T08:47:38;0.10;99.90
7016;DHT22;3548;48.402;9.990;2022-12-16T08:50:22;0.00;99.90
7016;DHT22;3548;48.402;9.990;2022-12-16T08:53:14;0.00;99.90
7016;DHT22;3548;48.402;9.990;2022-12-16T08:55:58;0.00;99.90
7016;DHT22;3548;48.402;9.990;2022-12-16T08:58:42;0.00;99.90
7016;DHT22;3548;48.402;9.990;2022-12-16T09:01:27;0.00;99.90
7016;DHT22;3548;48.402;9.990;2022-12-16T09:04:11;-0.10;99.90
7016;DHT22;3548;48.402;9.990;2022-12-16T09:06:55;-0.10;99.90
7016;DHT22;3548;48.402;9.990;2022-12-16T09:09:40;-0.10;99.90
7016;DHT22;3548;48.402;9.990;2022-12-16T09:12:24;-0.10;99.90
7016;DHT22;3548;48.402;9.990;2022-12-16T09:15:08;0.00;99.90
7016;DHT22;3548;48.402;9.990;2022-12-16T09:17:56;0.10;99.90
7016;DHT22;3548;48.402;9.990;2022-12-16T09:20:57;0.30;99.90
7016;DHT22;3548;48.402;9.990;2022-12-16T09:23:41;0.40;99.90
7016;DHT22;3548;48.402;9.990;2022-12-16T09:26:26;0.50;99.90
7016;DHT22;3548;48.402;9.990;2022-12-16T09:29:10;0.50;99.90
7016;DHT22;3548;48.402;9.990;2022-12-16T09:31:54;0.60;99.90
7016;DHT22;3548;48.402;9.990;2022-12-16T09:34:38;0.60;99.90
7016;DHT22;3548;48.402;9.990;2022-12-16T09:37:22;0.70;99.90
7016;DHT22;3548;48.402;9.990;2022-12-16T09:40:12;0.70;99.90
7016;DHT22;3548;48.402;9.990;2022-12-16T09:46:20;0.60;99.90
7016;DHT22;3548;48.402;9.990;2022-12-16T09:52:32;0.70;99.90
7016;DHT22;3548;48.402;9.990;2022-12-16T09:55:31;0.90;99.90
7016;DHT22;3548;48.402;9.990;2022-12-16T09:58:16;0.90;99.90
7016;DHT22;3548;48.402;9.990;2022-12-16T10:01:02;0.90;99.90
7016;DHT22;3548;48.402;9.990;2022-12-16T10:03:46;1.00;99.90
7016;DHT22;3548;48.402;9.990;2022-12-16T10:06:52;1.00;99.90
7016;DHT22;3548;48.402;9.990;2022-12-16T10:10:07;1.10;99.90
7016;DHT22;3548;48.402;9.990;2022-12-16T10:13:07;1.10;99.90
7016;DHT22;3548;48.402;9.990;2022-12-16T10:16:20;1.10;99.90
7016;DHT22;3548;48.402;9.990;2022-12-16T10:19:20;1.00;99.90
7016;DHT22;3548;48.402;9.990;2022-12-16T10:25:31;1.00;99.90
7016;DHT22;3548;48.402;9.990;2022-12-16T10:28:18;0.90;99.90
7016;DHT22;3548;48.402;9.990;2022-12-16T10:31:26;0.90;99.90
7016;DHT22;3548;48.402;9.990;2022-12-16T10:34:14;1.00;99.90
7016;DHT22;3548;48.402;9.990;2022-12-16T10:37:00;1.00;99.90
7016;DHT22;3548;48.402;9.990;2022-12-16T10:39:57;0.90;99.90
7016;DHT22;3548;48.402;9.990;2022-12-16T10:42:50;0.90;99.90
7016;DHT22;3548;48.402;9.990;2022-12-16T10:45:43;0.80;99.90
7016;DHT22;3548;48.402;9.990;2022-12-16T10:48:29;0.60;99.90
7016;DHT22;3548;48.402;9.990;2022-12-16T10:51:17;0.50;99.90
7016;DHT22;3548;48.402;9.990;2022-12-16T10:54:31;0.40;99.90
7016;DHT22;3548;48.402;9.990;2022-12-16T11:00:15;0.20;99.90
7016;DHT22;3548;48.402;9.990;2022-12-16T11:03:22;0.30;99.90
7016;DHT22;3548;48.402;9.990;2022-12-16T11:06:07;0.50;99.90
7016;DHT22;3548;48.402;9.990;2022-12-16T11:08:52;0.30;99.90
7016;DHT22;3548;48.402;9.990;2022-12-16T11:11:37;0.20;99.90
7016;DHT22;3548;48.402;9.990;2022-12-16T11:14:26;0.20;99.90
7016;DHT22;3548;48.402;9.990;2022-12-16T11:17:23;0.40;99.90
7016;DHT22;3548;48.402;9.990;2022-12-16T11:20:24;0.60;99.90
7016;DHT22;3548;48.402;9.990;2022-12-16T11:23:15;0.80;99.90
7016;DHT22;3548;48.402;9.990;2022-12-16T11:26:14;0.90;99.90
7016;DHT22;3548;48.402;9.990;2022-12-16T11:29:10;0.90;99.90
7016;DHT22;3548;48.402;9.990;2022-12-16T11:32:21;0.90;99.90
7016;DHT22;3548;48.402;9.990;2022-12-16T11:35:18;0.80;99.90
7016;DHT22;3548;48.402;9.990;2022-12-16T11:38:35;0.70;99.90
7016;DHT22;3548;48.402;9.990;2022-12-16T11:41:27;0.70;99.90
7016;DHT22;3548;48.402;9.990;2022-12-16T11:45:01;0.80;99.90
7016;DHT22;3548;48.402;9.990;2022-12-16T11:51:00;0.80;99.90
7016;DHT22;3548;48.402;9.990;2022-12-16T11:53:58;0.90;99.90
7016;DHT22;3548;48.402;9.990;2022-12-16T11:56:44;0.90;99.90
7016;DHT22;3548;48.402;9.990;2022-12-16T11:59:41;0.70;99.90
7016;DHT22;3548;48.402;9.990;2022-12-16T12:02:31;0.60;99.90
7016;DHT22;3548;48.402;9.990;2022-12-16T12:08:50;0.60;99.90
7016;DHT22;3548;48.402;9.990;2022-12-16T12:15:14;0.70;99.90
7016;DHT22;3548;48.402;9.990;2022-12-16T12:18:33;0.60;99.90
7016;DHT22;3548;48.402;9.990;2022-12-16T12:21:25;0.60;99.90
7016;DHT22;3548;48.402;9.990;2022-12-16T12:24:29;0.70;99.90
7016;DHT22;3548;48.402;9.990;2022-12-16T12:27:32;0.70;99.90
7016;DHT22;3548;48.402;9.990;2022-12-16T12:30:20;0.70;99.90
7016;DHT22;3548;48.402;9.990;2022-12-16T12:33:23;0.70;99.90
7016;DHT22;3548;48.402;9.990;2022-12-16T12:39:13;0.70;99.90
7016;DHT22;3548;48.402;9.990;2022-12-16T12:45:14;0.90;99.90
7016;DHT22;3548;48.402;9.990;2022-12-16T12:51:04;1.10;99.90
7016;DHT22;3548;48.402;9.990;2022-12-16T12:54:14;1.20;99.90
7016;DHT22;3548;48.402;9.990;2022-12-16T12:57:02;1.10;99.90
7016;DHT22;3548;48.402;9.990;2022-12-16T13:02:53;0.70;99.90
7016;DHT22;3548;48.402;9.990;2022-12-16T13:05:42;0.70;99.90
7016;DHT22;3548;48.402;9.990;2022-12-16T13:11:33;0.60;99.90
7016;DHT22;3548;48.402;9.990;2022-12-16T13:17:15;0.60;99.90
7016;DHT22;3548;48.402;9.990;2022-12-16T13:20:00;0.60;99.90
7016;DHT22;3548;48.402;9.990;2022-12-16T13:22:45;0.60;99.90
7016;DHT22;3548;48.402;9.990;2022-12-16T13:25:50;0.60;99.90
7016;DHT22;3548;48.402;9.990;2022-12-16T13:28:37;0.50;99.90
7016;DHT22;3548;48.402;9.990;2022-12-16T13:31:25;0.50;99.90
7016;DHT22;3548;48.402;9.990;2022-12-16T13:37:02;0.40;99.90
7016;DHT22;3548;48.402;9.990;2022-12-16T13:40:19;0.30;99.90
7016;DHT22;3548;48.402;9.990;2022-12-16T13:43:03;0.30;99.90
7016;DHT22;3548;48.402;9.990;2022-12-16T13:46:12;0.40;99.90
7016;DHT22;3548;48.402;9.990;2022-12-16T13:55:47;0.40;99.90
7016;DHT22;3548;48.402;9.990;2022-12-16T14:01:32;0.10;99.90
7016;DHT22;3548;48.402;9.990;2022-12-16T14:04:33;0.10;99.90
7016;DHT22;3548;48.402;9.990;2022-12-16T14:07:20;0.00;99.90
7016;DHT22;3548;48.402;9.990;2022-12-16T14:10:05;0.00;99.90
7016;DHT22;3548;48.402;9.990;2022-12-16T14:15:50;-0.10;99.90
7016;DHT22;3548;48.402;9.990;2022-12-16T14:25:16;-0.20;99.90
7016;DHT22;3548;48.402;9.990;2022-12-16T14:28:07;-0.20;99.90
7016;DHT22;3548;48.402;9.990;2022-12-16T14:31:08;-0.10;99.90
7016;DHT22;3548;48.402;9.990;2022-12-16T14:33:55;0.00;99.90
7016;DHT22;3548;48.402;9.990;2022-12-16T14:36:39;0.10;99.90
7016;DHT22;3548;48.402;9.990;2022-12-16T14:39:29;0.10;99.90
7016;DHT22;3548;48.402;9.990;2022-12-16T14:42:24;0.10;99.90
7016;DHT22;3548;48.402;9.990;2022-12-16T14:48:25;0.10;99.90
7016;DHT22;3548;48.402;9.990;2022-12-16T14:51:33;0.10;99.90
7016;DHT22;3548;48.402;9.990;2022-12-16T14:57:04;0.20;99.90
7016;DHT22;3548;48.402;9.990;2022-12-16T15:00:08;0.20;99.90
7016;DHT22;3548;48.402;9.990;2022-12-16T15:06:00;0.20;99.90
7016;DHT22;3548;48.402;9.990;2022-12-16T15:08:55;0.10;99.90
7016;DHT22;3548;48.402;9.990;2022-12-16T15:11:41;-0.20;99.90
7016;DHT22;3548;48.402;9.990;2022-12-16T15:14:33;-0.30;99.90
7016;DHT22;3548;48.402;9.990;2022-12-16T15:17:26;-0.40;99.90
7016;DHT22;3548;48.402;9.990;2022-12-16T15:20:24;-0.40;99.90
7016;DHT22;3548;48.402;9.990;2022-12-16T15:23:23;-0.50;99.90
7016;DHT22;3548;48.402;9.990;2022-12-16T15:26:15;-0.60;99.90
7016;DHT22;3548;48.402;9.990;2022-12-16T15:28:59;-0.70;99.90
7016;DHT22;3548;48.402;9.990;2022-12-16T15:31:44;-0.70;99.90
7016;DHT22;3548;48.402;9.990;2022-12-16T15:34:48;-0.70;99.90
7016;DHT22;3548;48.402;9.990;2022-12-16T15:37:41;-0.60;99.90
7016;DHT22;3548;48.402;9.990;2022-12-16T15:40:31;-0.50;99.90
7016;DHT22;3548;48.402;9.990;2022-12-16T15:43:26;-0.40;99.90
7016;DHT22;3548;48.402;9.990;2022-12-16T15:46:20;-0.30;99.90
7016;DHT22;3548;48.402;9.990;2022-12-16T15:49:17;-0.20;99.90
7016;DHT22;3548;48.402;9.990;2022-12-16T15:58:20;-0.30;99.90
7016;DHT22;3548;48.402;9.990;2022-12-16T16:01:06;-0.30;99.90
7016;DHT22;3548;48.402;9.990;2022-12-16T16:03:53;-0.30;99.90
7016;DHT22;3548;48.402;9.990;2022-12-16T16:06:38;-0.40;99.90
7016;DHT22;3548;48.402;9.990;2022-12-16T16:09:27;-0.40;99.90
7016;DHT22;3548;48.402;9.990;2022-12-16T16:12:13;-0.50;99.90
7016;DHT22;3548;48.402;9.990;2022-12-16T16:14:58;-0.60;99.90
7016;DHT22;3548;48.402;9.990;2022-12-16T16:17:42;-0.70;99.90
7016;DHT22;3548;48.402;9.990;2022-12-16T16:20:26;-0.80;99.90
7016;DHT22;3548;48.402;9.990;2022-12-16T16:23:11;-1.00;99.90
7016;DHT22;3548;48.402;9.990;2022-12-16T16:25:55;-1.00;99.90
7016;DHT22;3548;48.402;9.990;2022-12-16T16:28:40;-0.90;99.90
7016;DHT22;3548;48.402;9.990;2022-12-16T16:31:24;-0.90;99.90
7016;DHT22;3548;48.402;9.990;2022-12-16T16:34:09;-0.80;99.90
7016;DHT22;3548;48.402;9.990;2022-12-16T16:36:55;-0.80;99.90
7016;DHT22;3548;48.402;9.990;2022-12-16T16:39:40;-0.80;99.90
7016;DHT22;3548;48.402;9.990;2022-12-16T16:42:26;-0.80;99.90
7016;DHT22;3548;48.402;9.990;2022-12-16T16:45:11;-0.80;99.90
7016;DHT22;3548;48.402;9.990;2022-12-16T16:48:08;-0.80;99.90
7016;DHT22;3548;48.402;9.990;2022-12-16T16:50:54;-0.80;99.90
7016;DHT22;3548;48.402;9.990;2022-12-16T16:53:38;-0.80;99.90
7016;DHT22;3548;48.402;9.990;2022-12-16T16:56:23;-0.80;99.90
7016;DHT22;3548;48.402;9.990;2022-12-16T16:59:09;-0.80;99.90
7016;DHT22;3548;48.402;9.990;2022-12-16T17:01:55;-0.80;99.90
7016;DHT22;3548;48.402;9.990;2022-12-16T17:04:39;-0.80;99.90
7016;DHT22;3548;48.402;9.990;2022-12-16T17:07:23;-0.80;99.90
7016;DHT22;3548;48.402;9.990;2022-12-16T17:10:07;-0.70;99.90
7016;DHT22;3548;48.402;9.990;2022-12-16T17:12:51;-0.70;99.90
7016;DHT22;3548;48.402;9.990;2022-12-16T17:15:36;-0.70;99.90
7016;DHT22;3548;48.402;9.990;2022-12-16T17:18:20;-0.70;99.90
7016;DHT22;3548;48.402;9.990;2022-12-16T17:21:04;-0.80;99.90
7016;DHT22;3548;48.402;9.990;2022-12-16T17:23:50;-0.80;99.90
7016;DHT22;3548;48.402;9.990;2022-12-16T17:26:40;-0.70;99.90
7016;DHT22;3548;48.402;9.990;2022-12-16T17:29:24;-0.60;99.90
7016;DHT22;3548;48.402;9.990;2022-12-16T17:32:10;-0.50;99.90
7016;DHT22;3548;48.402;9.990;2022-12-16T17:34:55;-0.40;99.90
7016;DHT22;3548;48.402;9.990;2022-12-16T17:37:39;-0.40;99.90
7016;DHT22;3548;48.402;9.990;2022-12-16T17:40:24;-0.30;99.90
7016;DHT22;3548;48.402;9.990;2022-12-16T17:43:08;-0.20;99.90
7016;DHT22;3548;48.402;9.990;2022-12-16T17:46:04;-0.10;99.90
7016;DHT22;3548;48.402;9.990;2022-12-16T17:48:53;-0.10;99.90
7016;DHT22;3548;48.402;9.990;2022-12-16T17:51:38;0.00;99.90
7016;DHT22;3548;48.402;9.990;2022-12-16T17:54:22;0.00;99.90
7016;DHT22;3548;48.402;9.990;2022-12-16T17:57:06;0.00;99.90
7016;DHT22;3548;48.402;9.990;2022-12-16T17:59:50;0.00;99.90
7016;DHT22;3548;48.402;9.990;2022-12-16T18:02:42;-0.10;99.90
7016;DHT22;3548;48.402;9.990;2022-12-16T18:05:26;-0.10;99.90
7016;DHT22;3548;48.402;9.990;2022-12-16T18:08:10;0.00;99.90
7016;DHT22;3548;48.402;9.990;2022-12-16T18:10:56;0.00;99.90
7016;DHT22;3548;48.402;9.990;2022-12-16T18:13:42;0.00;99.90
7016;DHT22;3548;48.402;9.990;2022-12-16T18:16:26;0.00;99.90
7016;DHT22;3548;48.402;9.990;2022-12-16T18:19:14;-0.10;99.90
7016;DHT22;3548;48.402;9.990;2022-12-16T18:21:59;-0.20;99.90
7016;DHT22;3548;48.402;9.990;2022-12-16T18:24:44;-0.20;99.90
7016;DHT22;3548;48.402;9.990;2022-12-16T18:27:30;-0.20;99.90
7016;DHT22;3548;48.402;9.990;2022-12-16T18:30:15;-0.20;99.90
7016;DHT22;3548;48.402;9.990;2022-12-16T18:32:59;-0.20;99.90
7016;DHT22;3548;48.402;9.990;2022-12-16T18:35:43;-0.20;99.90
7016;DHT22;3548;48.402;9.990;2022-12-16T18:38:27;-0.20;99.90
7016;DHT22;3548;48.402;9.990;2022-12-16T18:41:20;-0.30;99.90
7016;DHT22;3548;48.402;9.990;2022-12-16T18:44:06;-0.40;99.90
7016;DHT22;3548;48.402;9.990;2022-12-16T18:46:52;-0.50;99.90
7016;DHT22;3548;48.402;9.990;2022-12-16T18:49:36;-0.50;99.90
7016;DHT22;3548;48.402;9.990;2022-12-16T18:52:20;-0.40;99.90
7016;DHT22;3548;48.402;9.990;2022-12-16T18:55:05;-0.40;99.90
7016;DHT22;3548;48.402;9.990;2022-12-16T18:57:50;-0.30;99.90
7016;DHT22;3548;48.402;9.990;2022-12-16T19:00:35;-0.40;99.90
7016;DHT22;3548;48.402;9.990;2022-12-16T19:03:19;-0.40;99.90
7016;DHT22;3548;48.402;9.990;2022-12-16T19:06:03;-0.50;99.90
7016;DHT22;3548;48.402;9.990;2022-12-16T19:08:50;-0.50;99.90
7016;DHT22;3548;48.402;9.990;2022-12-16T19:11:34;-0.60;99.90
7016;DHT22;3548;48.402;9.990;2022-12-16T19:14:18;-0.70;99.90
7016;DHT22;3548;48.402;9.990;2022-12-16T19:17:02;-0.70;99.90
7016;DHT22;3548;48.402;9.990;2022-12-16T19:19:46;-0.70;99.90
7016;DHT22;3548;48.402;9.990;2022-12-16T19:22:30;-0.80;99.90
7016;DHT22;3548;48.402;9.990;2022-12-16T19:25:14;-0.90;99.90
7016;DHT22;3548;48.402;9.990;2022-12-16T19:27:59;-0.90;99.90
7016;DHT22;3548;48.402;9.990;2022-12-16T19:30:53;-0.90;99.90
7016;DHT22;3548;48.402;9.990;2022-12-16T19:33:37;-1.00;99.90
7016;DHT22;3548;48.402;9.990;2022-12-16T19:36:21;-1.00;99.90
7016;DHT22;3548;48.402;9.990;2022-12-16T19:39:05;-1.10;99.90
7016;DHT22;3548;48.402;9.990;2022-12-16T19:41:49;-1.10;99.90
7016;DHT22;3548;48.402;9.990;2022-12-16T19:44:33;-1.20;99.90
7016;DHT22;3548;48.402;9.990;2022-12-16T19:47:18;-1.20;99.90